createdAt,value
2023-03-21T00:00:04.988Z,100594.53
2023-03-21T00:02:33.615Z,100592.72
2023-03-21T00:05:13.290Z,100587.41
2023-03-21T00:07:43.654Z,100579.53
2023-03-21T00:10:18.173Z,100579.59
2023-03-21T00:12:55.407Z,100577.75
2023-03-21T00:15:30.627Z,100578.69
2023-03-21T00:18:11.549Z,100574.25
2023-03-21T00:20:39.784Z,100570.72
2023-03-21T00:23:07.954Z,100568.94
2023-03-21T00:25:36.341Z,100567.13
2023-03-21T00:28:08.640Z,100566.28
2023-03-21T00:30:41.059Z,100568.94
2023-03-21T00:33:22.043Z,100561.81
2023-03-21T00:36:02.532Z,100561.81
2023-03-21T00:38:35.051Z,100526.75
2023-03-21T00:41:18.897Z,100550.34
2023-03-21T00:43:55.649Z,100552.19
2023-03-21T00:46:30.034Z,100546.81
2023-03-21T00:49:01.227Z,100544.19
2023-03-21T00:51:32.220Z,100534.47
2023-03-21T00:54:00.471Z,100539.75
2023-03-21T00:56:29.492Z,100542.44
2023-03-21T00:58:57.612Z,100538.00
2023-03-21T01:01:32.275Z,100532.69
2023-03-21T01:04:05.628Z,100529.25
2023-03-21T01:06:40.127Z,100543.31
2023-03-21T01:09:09.385Z,100536.22
2023-03-21T01:11:40.278Z,100526.50
2023-03-21T01:14:21.477Z,100524.72
2023-03-21T01:16:53.722Z,100522.94
2023-03-21T01:19:40.631Z,100525.59
2023-03-21T01:22:14.949Z,100518.63
2023-03-21T01:24:52.460Z,100515.91
2023-03-21T01:27:22.909Z,100522.16
2023-03-21T01:29:52.479Z,100515.13
2023-03-21T01:32:26.361Z,100516.00
2023-03-21T01:34:54.561Z,100516.06
2023-03-21T01:37:26.582Z,100514.28
2023-03-21T01:39:54.784Z,100511.63
2023-03-21T01:42:23.713Z,100509.88
2023-03-21T01:44:57.902Z,100513.47
2023-03-21T01:47:32.122Z,100515.28
2023-03-21T01:50:08.330Z,100510.00
2023-03-21T01:52:42.861Z,100511.75
2023-03-21T01:55:16.258Z,100504.66
2023-03-21T01:58:05.800Z,100501.13
2023-03-21T02:00:55.402Z,100502.91
2023-03-21T02:03:38.503Z,100501.13
2023-03-21T02:06:30.423Z,100496.72
2023-03-21T02:09:08.835Z,100472.19
2023-03-21T02:11:38.926Z,100487.91
2023-03-21T02:14:11.505Z,100486.13
2023-03-21T02:17:01.658Z,100483.47
2023-03-21T02:20:02.705Z,100479.94
2023-03-21T02:23:01.366Z,100478.16
2023-03-21T02:26:05.205Z,100475.44
2023-03-21T02:28:39.180Z,100473.69
2023-03-21T02:31:28.396Z,100473.66
2023-03-21T02:34:24.994Z,100463.91
2023-03-21T02:37:03.380Z,100471.88
2023-03-21T02:39:45.675Z,100474.50
2023-03-21T02:42:21.449Z,100470.06
2023-03-21T02:44:57.302Z,100474.50
2023-03-21T02:47:35.817Z,100465.72
2023-03-21T02:50:12.685Z,100459.66
2023-03-21T02:52:48.693Z,100472.00
2023-03-21T02:55:21.465Z,100462.44
2023-03-21T02:58:06.916Z,100475.59
2023-03-21T03:00:42.999Z,100466.81
2023-03-21T03:04:50.688Z,100466.09
2023-03-21T03:07:37.603Z,100459.94
2023-03-21T03:10:28.496Z,100454.69
2023-03-21T03:13:06.810Z,100453.00
2023-03-21T03:15:45.946Z,100453.06
2023-03-21T03:18:22.261Z,100453.06
2023-03-21T03:21:03.302Z,100449.59
2023-03-21T03:23:38.890Z,100456.72
2023-03-21T03:26:13.590Z,100457.66
2023-03-21T03:28:50.218Z,100458.53
2023-03-21T03:31:26.148Z,100455.88
2023-03-21T03:34:04.551Z,100450.59
2023-03-21T03:36:41.826Z,100453.25
2023-03-21T03:39:15.952Z,100448.81
2023-03-21T03:42:27.507Z,100454.06
2023-03-21T03:44:52.911Z,100447.88
2023-03-21T03:47:32.902Z,100439.91
2023-03-21T03:50:10.360Z,100446.16
2023-03-21T03:52:55.622Z,100432.00
2023-03-21T03:55:34.459Z,100427.72
2023-03-21T03:58:21.308Z,100438.28
2023-03-21T04:00:51.787Z,100442.75
2023-03-21T04:03:20.152Z,100440.94
2023-03-21T04:05:51.807Z,100444.47
2023-03-21T04:08:23.371Z,100448.84
2023-03-21T04:10:57.302Z,100444.38
2023-03-21T04:13:26.559Z,100447.91
2023-03-21T04:16:08.749Z,100446.09
2023-03-21T04:18:39.133Z,100419.88
2023-03-21T04:21:12.829Z,100438.13
2023-03-21T04:23:45.301Z,100439.84
2023-03-21T04:26:13.451Z,100442.50
2023-03-21T04:28:53.496Z,100446.94
2023-03-21T04:31:27.292Z,100441.63
2023-03-21T04:34:10.203Z,100441.56
2023-03-21T04:36:44.532Z,100444.28
2023-03-21T04:39:15.143Z,100446.00
2023-03-21T04:41:46.822Z,100447.69
2023-03-21T04:44:17.098Z,100453.84
2023-03-21T04:46:46.265Z,100464.53
2023-03-21T04:49:14.886Z,100453.06
2023-03-21T04:51:45.517Z,100446.00
2023-03-21T04:54:21.044Z,100445.94
2023-03-21T04:56:49.426Z,100445.09
2023-03-21T04:59:17.579Z,100438.91
2023-03-21T05:01:46.494Z,100438.09
2023-03-21T05:04:17.642Z,100431.00
2023-03-21T05:06:47.023Z,100424.91
2023-03-21T05:09:18.851Z,100422.31
2023-03-21T05:11:47.529Z,100422.31
2023-03-21T05:14:19.200Z,100425.84
2023-03-21T05:16:53.410Z,100421.38
2023-03-21T05:19:23.369Z,100421.31
2023-03-21T05:21:53.045Z,100403.72
2023-03-21T05:24:25.601Z,100409.75
2023-03-21T05:26:56.321Z,100408.00
2023-03-21T05:29:31.650Z,100402.69
2023-03-21T05:32:03.697Z,100410.69
2023-03-21T05:34:32.149Z,100416.88
2023-03-21T05:37:01.814Z,100401.81
2023-03-21T05:39:47.122Z,100404.44
2023-03-21T05:42:23.488Z,100412.34
2023-03-21T05:44:51.821Z,100407.00
2023-03-21T05:47:25.844Z,100405.16
2023-03-21T05:49:56.411Z,100405.16
2023-03-21T05:52:25.539Z,100401.56
2023-03-21T05:54:55.333Z,100415.63
2023-03-21T05:57:28.860Z,100420.00
2023-03-21T06:00:00.093Z,100412.75
2023-03-21T06:02:29.449Z,100416.88
2023-03-21T06:05:01.983Z,100417.53
2023-03-21T06:07:30.579Z,100416.44
2023-03-21T06:10:00.178Z,100412.66
2023-03-21T06:12:28.821Z,100420.31
2023-03-21T06:15:11.306Z,100410.28
2023-03-21T06:17:55.016Z,100403.81
2023-03-21T06:20:23.255Z,100412.41
2023-03-21T06:22:54.982Z,100418.34
2023-03-21T06:25:24.667Z,100418.97
2023-03-21T06:27:53.394Z,100415.06
2023-03-21T06:30:22.444Z,100417.41
2023-03-21T06:33:11.804Z,100424.09
2023-03-21T06:35:42.328Z,100424.09
2023-03-21T06:38:15.840Z,100432.09
2023-03-21T06:40:48.378Z,100429.03
2023-03-21T06:43:17.330Z,100423.78
2023-03-21T06:45:46.545Z,100432.81
2023-03-21T06:48:15.094Z,100428.59
2023-03-21T06:50:52.255Z,100423.94
2023-03-21T06:53:25.081Z,100408.25
2023-03-21T06:56:15.897Z,100424.16
2023-03-21T06:58:47.817Z,100428.28
2023-03-21T07:01:38.512Z,100431.53
2023-03-21T07:04:08.806Z,100421.59
2023-03-21T07:06:38.195Z,100430.97
2023-03-21T07:09:07.270Z,100429.84
2023-03-21T07:11:38.508Z,100425.78
2023-03-21T07:14:07.969Z,100426.72
2023-03-21T07:16:36.300Z,100431.88
2023-03-21T07:19:04.767Z,100433.13
2023-03-21T07:21:33.196Z,100436.53
2023-03-21T07:24:01.723Z,100430.09
2023-03-21T07:26:29.974Z,100434.16
2023-03-21T07:29:01.240Z,100437.06
2023-03-21T07:31:29.671Z,100438.56
2023-03-21T07:33:58.123Z,100440.66
2023-03-21T07:36:26.491Z,100435.53
2023-03-21T07:38:55.338Z,100427.69
2023-03-21T07:41:26.156Z,100434.88
2023-03-21T07:43:54.483Z,100431.75
2023-03-21T07:46:25.101Z,100428.50
2023-03-21T07:48:53.304Z,100424.53
2023-03-21T07:51:22.134Z,100425.09
2023-03-21T07:53:50.777Z,100425.41
2023-03-21T07:56:19.303Z,100429.88
2023-03-21T07:58:47.507Z,100429.84
2023-03-21T08:01:18.017Z,100423.53
2023-03-21T08:05:51.666Z,100433.00
2023-03-21T08:08:19.930Z,100427.72
2023-03-21T08:10:48.620Z,100429.69
2023-03-21T08:13:17.206Z,100425.53
2023-03-21T08:15:45.791Z,100432.31
2023-03-21T08:18:14.016Z,100430.09
2023-03-21T08:20:46.671Z,100422.34
2023-03-21T08:23:16.119Z,100431.88
2023-03-21T08:25:47.236Z,100422.06
2023-03-21T08:28:17.549Z,100428.78
2023-03-21T08:30:49.658Z,100431.53
2023-03-21T08:33:18.836Z,100429.72
2023-03-21T08:35:47.635Z,100437.13
2023-03-21T08:38:17.356Z,100428.59
2023-03-21T08:40:46.683Z,100432.31
2023-03-21T08:43:15.134Z,100435.25
2023-03-21T08:45:44.077Z,100436.94
2023-03-21T08:48:14.519Z,100427.88
2023-03-21T08:50:42.870Z,100416.91
2023-03-21T08:53:13.977Z,100430.13
2023-03-21T08:55:46.071Z,100430.22
2023-03-21T08:58:16.726Z,100431.91
2023-03-21T09:00:44.996Z,100426.38
2023-03-21T09:03:13.450Z,100433.66
2023-03-21T09:05:45.726Z,100432.00
2023-03-21T09:08:14.300Z,100415.88
2023-03-21T09:10:46.483Z,100429.84
2023-03-21T09:13:14.580Z,100423.31
2023-03-21T09:15:42.950Z,100422.38
2023-03-21T09:18:15.692Z,100424.47
2023-03-21T09:20:45.231Z,100425.56
2023-03-21T09:23:14.994Z,100412.25
2023-03-21T09:25:46.605Z,100432.19
2023-03-21T09:28:18.525Z,100428.94
2023-03-21T09:30:47.177Z,100433.13
2023-03-21T09:33:25.797Z,100428.38
2023-03-21T09:35:55.412Z,100419.44
2023-03-21T09:38:30.393Z,100416.72
2023-03-21T09:41:12.928Z,100417.34
2023-03-21T09:43:56.067Z,100422.94
2023-03-21T09:46:37.957Z,100422.09
2023-03-21T09:49:10.666Z,100424.78
2023-03-21T09:51:43.117Z,100419.00
2023-03-21T09:54:19.169Z,100386.81
2023-03-21T09:56:48.700Z,100417.50
2023-03-21T09:59:27.466Z,100416.66
2023-03-21T10:01:55.954Z,100423.38
2023-03-21T10:04:25.164Z,100427.50
2023-03-21T10:06:59.631Z,100423.44
2023-03-21T10:09:29.259Z,100429.13
2023-03-21T10:12:04.545Z,100424.97
2023-03-21T10:14:40.486Z,100419.66
2023-03-21T10:17:19.607Z,100416.94
2023-03-21T10:19:52.214Z,100409.50
2023-03-21T10:22:21.040Z,100410.72
2023-03-21T10:24:49.238Z,100419.13
2023-03-21T10:27:19.926Z,100416.44
2023-03-21T10:29:53.369Z,100410.00
2023-03-21T10:32:23.010Z,100406.19
2023-03-21T10:37:25.962Z,100410.03
2023-03-21T10:39:56.788Z,100401.81
2023-03-21T10:42:27.105Z,100405.06
2023-03-21T10:44:59.685Z,100406.97
2023-03-21T10:47:33.594Z,100404.66
2023-03-21T10:50:09.850Z,100399.72
2023-03-21T10:52:47.079Z,100395.47
2023-03-21T10:55:23.426Z,100396.34
2023-03-21T10:57:57.594Z,100393.34
2023-03-21T11:00:35.469Z,100395.22
2023-03-21T11:03:04.707Z,100393.28
2023-03-21T11:05:38.471Z,100392.59
2023-03-21T11:08:12.014Z,100390.75
2023-03-21T11:10:49.530Z,100392.94
2023-03-21T11:13:20.555Z,100399.56
2023-03-21T11:15:55.122Z,100394.47
2023-03-21T11:18:25.124Z,100392.31
2023-03-21T11:20:56.419Z,100389.34
2023-03-21T11:23:29.777Z,100393.41
2023-03-21T11:26:00.780Z,100382.75
2023-03-21T11:28:37.468Z,100376.06
2023-03-21T11:31:09.507Z,100369.41
2023-03-21T11:33:40.340Z,100373.94
2023-03-21T11:36:26.385Z,100376.56
2023-03-21T11:38:59.785Z,100346.31
2023-03-21T11:41:32.046Z,100379.69
2023-03-21T11:44:01.679Z,100374.56
2023-03-21T11:46:41.953Z,100367.91
2023-03-21T11:49:11.718Z,100368.91
2023-03-21T11:51:47.681Z,100359.81
2023-03-21T11:54:20.868Z,100363.41
2023-03-21T11:56:52.939Z,100361.00
2023-03-21T11:59:34.518Z,100353.88
2023-03-21T12:02:26.660Z,100348.91
2023-03-21T12:05:04.515Z,100342.19
2023-03-21T12:07:50.585Z,100333.56
2023-03-21T12:10:34.117Z,100340.09
2023-03-21T12:13:19.680Z,100333.28
2023-03-21T12:15:55.842Z,100335.09
2023-03-21T12:18:51.392Z,100330.41
2023-03-21T12:21:24.564Z,100329.94
2023-03-21T12:24:00.031Z,100323.97
2023-03-21T12:26:33.026Z,100334.31
2023-03-21T12:29:14.069Z,100319.50
2023-03-21T12:31:57.657Z,100313.25
2023-03-21T12:34:44.361Z,100308.28
2023-03-21T12:37:24.572Z,100311.16
2023-03-21T12:39:58.611Z,100299.25
2023-03-21T12:42:42.949Z,100304.06
2023-03-21T12:45:17.209Z,100295.28
2023-03-21T12:47:50.406Z,100290.88
2023-03-21T12:50:25.864Z,100294.34
2023-03-21T12:52:59.510Z,100287.66
2023-03-21T12:55:31.734Z,100278.00
2023-03-21T12:58:05.817Z,100286.44
2023-03-21T13:00:39.840Z,100287.59
2023-03-21T13:03:14.174Z,100269.84
2023-03-21T13:06:53.887Z,100274.06
2023-03-21T13:09:37.588Z,100266.22
2023-03-21T13:12:21.342Z,100267.66
2023-03-21T13:15:07.882Z,100271.78
2023-03-21T13:17:45.308Z,100259.03
2023-03-21T13:20:23.735Z,100260.22
2023-03-21T13:22:53.548Z,100264.28
2023-03-21T13:25:24.285Z,100268.50
2023-03-21T13:27:54.912Z,100262.66
2023-03-21T13:30:26.631Z,100259.25
2023-03-21T13:33:06.340Z,100257.53
2023-03-21T13:35:38.663Z,100254.78
2023-03-21T13:38:16.464Z,100254.53
2023-03-21T13:40:48.884Z,100253.03
2023-03-21T13:43:36.413Z,100245.94
2023-03-21T13:46:10.586Z,100241.47
2023-03-21T13:48:57.835Z,100236.63
2023-03-21T13:51:47.889Z,100232.59
2023-03-21T13:54:25.436Z,100236.91
2023-03-21T13:56:55.915Z,100239.81
2023-03-21T13:59:43.110Z,100237.25
2023-03-21T14:02:28.514Z,100228.53
2023-03-21T14:05:05.717Z,100224.72
2023-03-21T14:07:36.969Z,100235.28
2023-03-21T14:10:15.681Z,100236.56
2023-03-21T14:12:48.698Z,100243.78
2023-03-21T14:15:21.918Z,100242.28
2023-03-21T14:17:52.623Z,100241.94
2023-03-21T14:20:24.222Z,100239.97
2023-03-21T14:22:53.858Z,100227.56
2023-03-21T14:25:31.272Z,100231.81
2023-03-21T14:28:04.305Z,100221.72
2023-03-21T14:30:35.883Z,100218.28
2023-03-21T14:33:17.408Z,100219.53
2023-03-21T14:35:48.132Z,100203.66
2023-03-21T14:38:21.890Z,100176.63
2023-03-21T14:40:58.201Z,100187.47
2023-03-21T14:43:27.756Z,100182.84
2023-03-21T14:45:59.021Z,100171.53
2023-03-21T14:48:32.334Z,100134.72
2023-03-21T14:51:09.258Z,100121.97
2023-03-21T14:53:41.032Z,100128.28
2023-03-21T14:56:23.008Z,100150.22
2023-03-21T14:58:56.209Z,100167.88
2023-03-21T15:01:31.228Z,100153.06
2023-03-21T15:04:01.085Z,100161.44
2023-03-21T15:06:29.440Z,100171.78
2023-03-21T15:08:59.674Z,100186.97
2023-03-21T15:11:34.349Z,100181.81
2023-03-21T15:14:08.065Z,100174.72
2023-03-21T15:16:37.336Z,100176.84
2023-03-21T15:19:07.265Z,100167.56
2023-03-21T15:21:39.348Z,100162.41
2023-03-21T15:24:13.988Z,100158.09
2023-03-21T15:26:46.010Z,100166.53
2023-03-21T15:29:16.218Z,100167.16
2023-03-21T15:31:48.036Z,100153.09
2023-03-21T15:34:22.925Z,100143.41
2023-03-21T15:36:58.725Z,100130.78
2023-03-21T15:39:29.864Z,100120.56
2023-03-21T15:42:05.093Z,100107.38
2023-03-21T15:44:35.930Z,100122.06
2023-03-21T15:47:06.706Z,100092.78
2023-03-21T15:49:41.390Z,100089.84
2023-03-21T15:52:15.280Z,100093.44
2023-03-21T15:54:45.752Z,100115.41
2023-03-21T15:57:24.458Z,100121.69
2023-03-21T15:59:57.716Z,100125.50
2023-03-21T16:02:30.824Z,100126.03
2023-03-21T16:05:01.482Z,100132.72
2023-03-21T16:07:30.101Z,100136.25
2023-03-21T16:10:01.432Z,100141.47
2023-03-21T16:12:31.216Z,100140.16
2023-03-21T16:14:59.450Z,100144.38
2023-03-21T16:17:33.251Z,100143.19
2023-03-21T16:20:17.845Z,100152.88
2023-03-21T16:22:46.204Z,100151.09
2023-03-21T16:25:14.534Z,100143.13
2023-03-21T16:27:44.755Z,100150.28
2023-03-21T16:30:14.227Z,100152.25
2023-03-21T16:32:42.845Z,100140.97
2023-03-21T16:35:11.363Z,100130.72
2023-03-21T16:37:40.552Z,100137.94
2023-03-21T16:40:22.977Z,100134.47
2023-03-21T16:42:52.962Z,100134.66
2023-03-21T16:45:21.457Z,100135.63
2023-03-21T16:47:50.113Z,100133.91
2023-03-21T16:50:27.876Z,100135.78
2023-03-21T16:52:59.863Z,100143.94
2023-03-21T16:55:28.375Z,100150.25
2023-03-21T16:57:58.229Z,100146.84
2023-03-21T17:00:29.219Z,100139.75
2023-03-21T17:03:07.587Z,100124.03
2023-03-21T17:05:38.969Z,100135.75
2023-03-21T17:08:07.596Z,100143.09
2023-03-21T17:10:38.673Z,100143.28
2023-03-21T17:13:11.608Z,100136.31
2023-03-21T17:15:41.524Z,100136.50
2023-03-21T17:18:11.631Z,100127.91
2023-03-21T17:20:41.725Z,100132.47
2023-03-21T17:23:11.258Z,100131.78
2023-03-21T17:25:39.615Z,100133.78
2023-03-21T17:28:08.786Z,100137.41
2023-03-21T17:30:40.307Z,100133.16
2023-03-21T17:33:09.564Z,100128.00
2023-03-21T17:35:38.065Z,100121.06
2023-03-21T17:38:11.960Z,100127.44
2023-03-21T17:40:40.805Z,100115.09
2023-03-21T17:43:16.187Z,100123.13
2023-03-21T17:45:46.121Z,100120.72
2023-03-21T17:48:14.476Z,100123.53
2023-03-21T17:50:44.552Z,100106.72
2023-03-21T17:53:13.090Z,100117.56
2023-03-21T17:55:46.301Z,100117.69
2023-03-21T17:58:15.055Z,100118.69
2023-03-21T18:00:43.550Z,100114.56
2023-03-21T18:03:13.573Z,100110.22
2023-03-21T18:08:09.788Z,100110.63
2023-03-21T18:10:40.858Z,100115.25
2023-03-21T18:13:11.925Z,100112.72
2023-03-21T18:15:44.895Z,100115.56
2023-03-21T18:18:14.532Z,100120.22
2023-03-21T18:20:52.249Z,100127.63
2023-03-21T18:23:26.105Z,100135.09
2023-03-21T18:25:54.956Z,100133.69
2023-03-21T18:28:23.610Z,100133.97
2023-03-21T18:31:09.484Z,100141.38
2023-03-21T18:33:42.361Z,100138.16
2023-03-21T18:36:14.237Z,100134.00
2023-03-21T18:38:44.866Z,100137.53
2023-03-21T18:41:15.166Z,100136.75
2023-03-21T18:44:05.611Z,100146.66
2023-03-21T18:46:33.418Z,100135.69
2023-03-21T18:49:26.989Z,100137.41
2023-03-21T18:51:50.531Z,100129.59
2023-03-21T18:54:23.807Z,100125.34
2023-03-21T18:59:41.219Z,100133.16
2023-03-21T19:02:09.797Z,100142.19
2023-03-21T19:04:38.483Z,100140.59
2023-03-21T19:07:08.118Z,100143.34
2023-03-21T19:10:05.228Z,100145.16
2023-03-21T19:12:29.782Z,100148.78
2023-03-21T19:15:01.721Z,100142.66
2023-03-21T19:20:19.430Z,100149.75
2023-03-21T19:22:47.907Z,100130.59
2023-03-21T19:25:18.386Z,100149.84
2023-03-21T19:27:47.385Z,100157.00
2023-03-21T19:30:16.244Z,100160.22
2023-03-21T19:32:45.448Z,100156.59
2023-03-21T19:35:14.469Z,100155.59
2023-03-21T19:37:42.900Z,100154.63
2023-03-21T19:40:12.359Z,100142.19
2023-03-21T19:42:44.745Z,100150.06
2023-03-21T19:45:14.038Z,100148.19
2023-03-21T19:47:42.551Z,100146.22
2023-03-21T19:53:03.142Z,100138.81
2023-03-21T19:55:31.824Z,100140.50
2023-03-21T19:58:02.119Z,100146.59
2023-03-21T20:00:31.003Z,100140.31
2023-03-21T20:02:59.588Z,100149.19
2023-03-21T20:05:28.259Z,100146.50
2023-03-21T20:07:59.022Z,100158.88
2023-03-21T20:10:28.330Z,100153.53
2023-03-21T20:12:57.312Z,100153.47
2023-03-21T20:15:29.937Z,100148.16
2023-03-21T20:17:58.922Z,100151.66
2023-03-21T20:20:27.468Z,100142.78
2023-03-21T20:23:06.792Z,100146.44
2023-03-21T20:25:36.764Z,100151.75
2023-03-21T20:28:15.656Z,100142.97
2023-03-21T20:30:53.280Z,100145.66
2023-03-21T20:33:22.464Z,100153.75
2023-03-21T20:38:52.207Z,100156.59
2023-03-21T20:41:20.984Z,100156.69
2023-03-21T20:46:47.257Z,100148.22
2023-03-21T20:49:15.914Z,100149.28
2023-03-21T20:52:44.640Z,100155.75
2023-03-21T20:54:35.572Z,100146.28
2023-03-21T20:57:04.833Z,100154.56
2023-03-21T20:59:33.825Z,100134.72
2023-03-21T21:02:05.535Z,100146.16
2023-03-21T21:05:05.120Z,100143.66
2023-03-21T21:07:27.795Z,100135.09
2023-03-21T21:09:56.346Z,100136.34
2023-03-21T21:12:27.862Z,100131.91
2023-03-21T21:14:57.253Z,100136.75
2023-03-21T21:18:01.501Z,100137.00
2023-03-21T21:20:17.752Z,100127.56
2023-03-21T21:22:58.620Z,100133.63
2023-03-21T21:25:29.168Z,100124.16
2023-03-21T21:27:58.076Z,100138.50
2023-03-21T21:30:26.584Z,100149.13
2023-03-21T21:32:59.552Z,100141.03
2023-03-21T21:35:27.963Z,100139.41
2023-03-21T21:37:56.285Z,100146.41
2023-03-21T21:40:25.834Z,100145.53
2023-03-21T21:42:54.181Z,100137.69
2023-03-21T21:45:22.515Z,100146.47
2023-03-21T21:47:50.967Z,100141.25
2023-03-21T21:50:22.504Z,100145.66
2023-03-21T21:52:54.439Z,100144.63
2023-03-21T21:55:23.311Z,100142.75
2023-03-21T21:57:53.037Z,100144.56
2023-03-21T22:00:25.014Z,100145.59
2023-03-21T22:02:53.517Z,100144.63
2023-03-21T22:05:23.213Z,100142.88
2023-03-21T22:07:56.198Z,100137.41
2023-03-21T22:10:27.367Z,100142.94
2023-03-21T22:12:55.677Z,100136.88
2023-03-21T22:15:23.987Z,100144.97
2023-03-21T22:17:54.661Z,100139.72
2023-03-21T22:20:24.514Z,100135.47
2023-03-21T22:22:52.868Z,100137.38
2023-03-21T22:25:23.832Z,100122.41
2023-03-21T22:27:52.099Z,100123.47
2023-03-21T22:30:20.371Z,100132.47
2023-03-21T22:33:08.033Z,100130.78
2023-03-21T22:35:38.803Z,100138.09
2023-03-21T22:38:07.539Z,100134.63
2023-03-21T22:40:35.942Z,100136.50
2023-03-21T22:43:04.440Z,100130.44
2023-03-21T22:45:34.867Z,100124.19
2023-03-21T22:48:03.345Z,100127.84
2023-03-21T22:53:20.890Z,100118.28
2023-03-21T22:55:49.054Z,100114.03
2023-03-21T22:58:17.389Z,100116.72
2023-03-21T23:00:45.606Z,100122.91
2023-03-21T23:03:14.650Z,100129.94
2023-03-21T23:08:51.531Z,100128.09
2023-03-21T23:11:20.073Z,100117.56
2023-03-21T23:13:51.607Z,100114.03
2023-03-21T23:16:27.774Z,100122.75
2023-03-21T23:18:56.438Z,100128.66
2023-03-21T23:21:25.968Z,100129.44
2023-03-21T23:23:55.781Z,100128.28
2023-03-21T23:26:24.981Z,100128.94
2023-03-21T23:28:53.568Z,100124.41
2023-03-21T23:31:23.585Z,100125.09
2023-03-21T23:33:52.227Z,100116.19
2023-03-21T23:36:22.424Z,100126.47
2023-03-21T23:38:52.784Z,100121.00
2023-03-21T23:41:26.084Z,100120.00
2023-03-21T23:43:54.702Z,100114.53
2023-03-21T23:46:23.160Z,100109.06
2023-03-21T23:48:53.996Z,100124.75
2023-03-21T23:51:24.959Z,100115.78
2023-03-21T23:53:53.484Z,100100.63
2023-03-21T23:56:28.525Z,100108.50
2023-03-21T23:58:58.373Z,100100.59
